Time;durP1;ratioP1;P1;durP2;ratioP2;P2;SDS_P1;SDS_P2;PMS_P1;PMS_P2;Temp;Humidity;BMP_temperature;BMP_pressure;BME280_temperature;BME280_humidity;BME280_pressure;Samples;Min_cycle;Max_cycle;Signal;HPM_P1;HPM_P2
2021/10/16 00:02:07;;;;;;;0.75;0.70;;;;;;;;;;7330024;19;161949;-15
2021/10/16 00:04:35;;;;;;;0.90;0.90;;;;;;;;;;7330172;19;162420;-17
2021/10/16 00:07:03;;;;;;;0.70;0.70;;;;;;;;;;7331611;19;154028;-17
2021/10/16 00:09:31;;;;;;;0.77;0.73;;;;;;;;;;7330480;19;153547;-13
2021/10/16 00:11:59;;;;;;;0.68;0.68;;;;;;;;;;7327486;19;162086;-16
2021/10/16 00:14:27;;;;;;;0.90;0.90;;;;;;;;;;7329634;19;162615;-15
2021/10/16 10:03:13;;;;;;;1.00;1.00;;;;;;;;;;7369551;19;133778;-15
2021/10/16 10:05:44;;;;;;;1.35;1.10;;;;;;;;;;7364420;19;153635;-16
2021/10/16 10:08:13;;;;;;;0.90;0.90;;;;;;;;;;7364042;19;162099;-14
2021/10/16 10:10:41;;;;;;;1.13;1.02;;;;;;;;;;7363776;19;162871;-13
2021/10/16 10:13:10;;;;;;;0.90;0.90;;;;;;;;;;7364801;19;153824;-13
2021/10/16 10:15:38;;;;;;;1.00;0.90;;;;;;;;;;7364454;19;153932;-14
2021/10/16 10:19:09;;;;;;;1.38;0.90;;;;;;;;;;7363872;19;162120;-17
2021/10/16 10:21:06;;;;;;;0.98;0.98;;;;;;;;;;7362617;19;162547;-14
2021/10/16 10:23:34;;;;;;;0.80;0.80;;;;;;;;;;7364236;19;153878;-16
2021/10/16 10:26:42;;;;;;;0.80;0.80;;;;;;;;;;7364131;19;153874;-15
2021/10/16 10:29:13;;;;;;;0.70;0.70;;;;;;;;;;7360628;19;162108;-13
2021/10/16 10:31:44;;;;;;;1.13;1.05;;;;;;;;;;7359404;19;162411;-14
2021/10/16 10:34:24;;;;;;;0.90;0.90;;;;;;;;;;7362111;19;154126;-16
2021/10/16 10:37:01;;;;;;;0.88;0.88;;;;;;;;;;7363772;19;153658;-16
2021/10/16 10:39:33;;;;;;;0.70;0.70;;;;;;;;;;7363074;19;161829;-13
2021/10/16 10:42:13;;;;;;;0.80;0.80;;;;;;;;;;7363336;19;162436;-12
2021/10/16 10:44:43;;;;;;;0.90;0.90;;;;;;;;;;7363702;19;153935;-16
2021/10/16 10:47:31;;;;;;;0.73;0.73;;;;;;;;;;7363537;19;153452;-16
2021/10/16 10:50:10;;;;;;;0.70;0.70;;;;;;;;;;7362584;19;161797;-14
2021/10/16 10:52:56;;;;;;;0.80;0.80;;;;;;;;;;7360981;19;162674;-14
2021/10/16 10:55:24;;;;;;;0.60;0.60;;;;;;;;;;7363282;19;154223;-14
2021/10/16 10:58:01;;;;;;;0.70;0.70;;;;;;;;;;7363181;19;153506;-13
2021/10/16 11:00:33;;;;;;;0.80;0.80;;;;;;;;;;7362732;19;161949;-15
2021/10/16 11:03:27;;;;;;;0.70;0.70;;;;;;;;;;7345267;19;162481;-16
2021/10/16 11:06:11;;;;;;;1.10;0.80;;;;;;;;;;7334075;19;153930;-16
2021/10/16 11:08:39;;;;;;;;;;;;;;;;;;7333360;19;153562;-13
2021/10/16 11:11:07;;;;;;;0.73;0.73;;;;;;;;;;7333373;19;162111;-13
2021/10/16 11:13:36;;;;;;;0.70;0.70;;;;;;;;;;7333578;19;162402;-15
2021/10/16 11:16:06;;;;;;;0.70;0.70;;;;;;;;;;7333797;19;153906;-15
2021/10/16 11:18:35;;;;;;;0.68;0.68;;;;;;;;;;7333588;19;153890;-16
2021/10/16 11:21:12;;;;;;;0.70;0.70;;;;;;;;;;7332306;19;161927;-13
2021/10/16 11:23:41;;;;;;;0.80;0.80;;;;;;;;;;7333155;19;162523;-16
2021/10/16 11:26:12;;;;;;;0.70;0.70;;;;;;;;;;7333598;19;153942;-15
2021/10/16 11:28:43;;;;;;;0.70;0.70;;;;;;;;;;7333581;19;153570;-15
2021/10/16 11:31:11;;;;;;;0.68;0.63;;;;;;;;;;7332716;19;162004;-15
2021/10/16 11:33:39;;;;;;;0.60;0.60;;;;;;;;;;7334466;19;162262;-17
2021/10/16 11:36:09;;;;;;;0.93;0.65;;;;;;;;;;7332264;19;154232;-15
2021/10/16 11:38:39;;;;;;;0.60;0.60;;;;;;;;;;7332273;19;153535;-13
2021/10/16 11:41:10;;;;;;;0.73;0.73;;;;;;;;;;7333181;19;162059;-15
2021/10/16 11:43:40;;;;;;;0.70;0.70;;;;;;;;;;7331337;19;162559;-13
2021/10/16 11:46:23;;;;;;;0.60;0.60;;;;;;;;;;7330675;19;153942;-15
2021/10/16 11:48:53;;;;;;;0.70;0.70;;;;;;;;;;7332105;19;153701;-15
2021/10/16 11:51:26;;;;;;;1.00;0.60;;;;;;;;;;7329081;19;161820;-16
2021/10/16 11:53:56;;;;;;;0.60;0.60;;;;;;;;;;7331446;19;162605;-15
2021/10/16 11:56:25;;;;;;;0.63;0.63;;;;;;;;;;7330794;19;154100;-14
2021/10/16 11:58:55;;;;;;;0.70;0.70;;;;;;;;;;7331640;19;153952;-16
2021/10/16 12:01:23;;;;;;;0.70;0.70;;;;;;;;;;7330704;19;162159;-14
2021/10/16 12:03:51;;;;;;;0.80;0.80;;;;;;;;;;7331384;19;162525;-14
2021/10/16 12:06:19;;;;;;;0.70;0.70;;;;;;;;;;7331582;19;154213;-14
2021/10/16 12:08:58;;;;;;;1.67;0.70;;;;;;;;;;7331511;19;153770;-17
2021/10/16 12:11:31;;;;;;;0.60;0.60;;;;;;;;;;7329591;19;161772;-18
2021/10/16 12:14:06;;;;;;;0.80;0.70;;;;;;;;;;7329521;19;162364;-15
2021/10/16 12:16:38;;;;;;;0.70;0.70;;;;;;;;;;7331007;19;153930;-18
2021/10/16 12:19:17;;;;;;;0.63;0.63;;;;;;;;;;7331995;19;153494;-15
2021/10/16 12:21:50;;;;;;;0.73;0.73;;;;;;;;;;7328266;19;162261;-34
2021/10/16 12:24:24;;;;;;;0.55;0.55;;;;;;;;;;7331112;19;162469;-29
2021/10/16 12:27:14;;;;;;;0.50;0.50;;;;;;;;;;7331586;19;154005;-20
2021/10/16 12:29:46;;;;;;;0.90;0.70;;;;;;;;;;7332126;19;153543;-13
2021/10/16 12:32:15;;;;;;;0.75;0.75;;;;;;;;;;7330600;19;161896;-15
2021/10/16 12:34:51;;;;;;;0.73;0.73;;;;;;;;;;7330485;19;162358;-15
2021/10/16 12:37:19;;;;;;;0.90;0.90;;;;;;;;;;7335670;19;153960;-13
2021/10/16 12:39:49;;;;;;;0.95;0.95;;;;;;;;;;7333424;19;153636;-12
2021/10/16 12:42:29;;;;;;;0.90;0.90;;;;;;;;;;7332683;19;161935;-24
2021/10/16 12:45:08;;;;;;;0.80;0.80;;;;;;;;;;7331122;19;162619;-16
2021/10/16 12:47:37;;;;;;;0.93;0.93;;;;;;;;;;7331308;19;153962;-16
2021/10/16 12:50:06;;;;;;;0.90;0.90;;;;;;;;;;7331429;19;153800;-14
2021/10/16 12:52:41;;;;;;;0.75;0.75;;;;;;;;;;7332704;19;162067;-17
2021/10/16 12:55:17;;;;;;;0.90;0.90;;;;;;;;;;7329582;19;162527;-13
2021/10/16 12:57:55;;;;;;;1.20;1.10;;;;;;;;;;7331489;19;154088;-14
2021/10/16 13:00:25;;;;;;;0.80;0.80;;;;;;;;;;7330153;19;153679;-14
2021/10/16 13:02:53;;;;;;;0.80;0.80;;;;;;;;;;7328184;19;161902;-15
2021/10/16 13:05:23;;;;;;;0.82;0.82;;;;;;;;;;7330626;19;162468;-16
2021/10/16 13:07:51;;;;;;;0.80;0.80;;;;;;;;;;7331206;19;154092;-15
2021/10/16 13:10:19;;;;;;;0.88;0.88;;;;;;;;;;7330824;19;154005;-14
2021/10/16 13:12:47;;;;;;;0.80;0.80;;;;;;;;;;7329616;19;161891;-14
2021/10/16 13:15:16;;;;;;;0.80;0.80;;;;;;;;;;7331914;19;162375;-14
2021/10/16 13:17:44;;;;;;;1.02;1.00;;;;;;;;;;7334050;19;154054;-15
2021/10/16 13:20:14;;;;;;;1.17;0.85;;;;;;;;;;7330343;19;153495;-16
2021/10/16 13:22:42;;;;;;;0.80;0.80;;;;;;;;;;7330175;19;161966;-16
2021/10/16 13:25:12;;;;;;;0.82;0.82;;;;;;;;;;7329652;19;162562;-16
2021/10/16 13:27:40;;;;;;;0.90;0.90;;;;;;;;;;7328893;19;154090;-14
2021/10/16 13:30:11;;;;;;;1.02;1.02;;;;;;;;;;7332971;19;154483;-13
2021/10/16 13:32:39;;;;;;;0.80;0.80;;;;;;;;;;7330943;19;161863;-17
2021/10/16 13:35:07;;;;;;;1.00;1.00;;;;;;;;;;7330019;19;162665;-14
2021/10/16 13:37:35;;;;;;;0.98;0.80;;;;;;;;;;7331898;19;154318;-15
2021/10/16 13:40:04;;;;;;;0.90;0.90;;;;;;;;;;7333112;19;153534;-13
2021/10/16 13:42:35;;;;;;;2.45;1.25;;;;;;;;;;7328377;19;161822;-15
2021/10/16 13:45:09;;;;;;;1.17;1.08;;;;;;;;;;7326497;19;162401;-14
2021/10/16 13:47:37;;;;;;;0.90;0.90;;;;;;;;;;7332142;19;153913;-15
2021/10/16 13:50:06;;;;;;;0.80;0.80;;;;;;;;;;7328762;19;153547;-14
2021/10/16 13:52:35;;;;;;;0.70;0.70;;;;;;;;;;7327355;19;161278;-16
2021/10/16 13:55:04;;;;;;;0.80;0.80;;;;;;;;;;7328443;19;162514;-16
2021/10/16 13:57:32;;;;;;;1.13;1.00;;;;;;;;;;7327213;19;153998;-14
2021/10/16 14:00:01;;;;;;;0.95;0.95;;;;;;;;;;7328675;19;153655;-16
2021/10/16 14:02:32;;;;;;;1.42;0.90;;;;;;;;;;7325951;19;162103;-15
2021/10/16 14:05:00;;;;;;;0.93;0.93;;;;;;;;;;7328931;19;162523;-15
2021/10/16 14:07:28;;;;;;;1.55;0.90;;;;;;;;;;7331466;19;154453;-15
2021/10/16 14:09:56;;;;;;;0.80;0.80;;;;;;;;;;7326888;19;154348;-16
2021/10/16 14:12:26;;;;;;;0.80;0.80;;;;;;;;;;7326931;19;162007;-15
2021/10/16 14:14:54;;;;;;;0.80;0.80;;;;;;;;;;7326105;19;162604;-15
2021/10/16 14:17:22;;;;;;;0.90;0.90;;;;;;;;;;7327886;19;153935;-13
2021/10/16 14:19:49;;;;;;;1.25;1.10;;;;;;;;;;7327677;19;153417;-17
2021/10/16 14:22:17;;;;;;;0.90;0.90;;;;;;;;;;7327597;19;162075;-14
2021/10/16 14:24:45;;;;;;;0.80;0.80;;;;;;;;;;7328306;19;162572;-14
2021/10/16 14:27:13;;;;;;;0.90;0.90;;;;;;;;;;7327566;19;154049;-17
2021/10/16 14:29:41;;;;;;;0.90;0.90;;;;;;;;;;7326748;19;153744;-14
2021/10/16 14:32:09;;;;;;;0.93;0.93;;;;;;;;;;7326835;19;161831;-16
2021/10/16 14:34:37;;;;;;;1.00;1.00;;;;;;;;;;7325900;19;162598;-14
2021/10/16 14:37:05;;;;;;;0.82;0.82;;;;;;;;;;7329096;19;154035;-14
2021/10/16 14:39:33;;;;;;;1.35;0.90;;;;;;;;;;7333833;19;153564;-15
2021/10/16 14:42:01;;;;;;;0.73;0.73;;;;;;;;;;7336155;19;162217;-15
2021/10/16 14:44:29;;;;;;;0.75;0.70;;;;;;;;;;7334206;19;162377;-17
2021/10/16 14:46:57;;;;;;;0.80;0.80;;;;;;;;;;7334857;19;154253;-16
2021/10/16 14:49:25;;;;;;;0.80;0.77;;;;;;;;;;7333862;19;153884;-14
2021/10/16 14:51:53;;;;;;;0.73;0.73;;;;;;;;;;7333617;19;161835;-14
2021/10/16 14:54:20;;;;;;;0.90;0.90;;;;;;;;;;7330980;19;162391;-16
2021/10/16 14:56:48;;;;;;;0.90;0.90;;;;;;;;;;7333828;19;153936;-16
2021/10/16 14:59:16;;;;;;;1.65;0.70;;;;;;;;;;7332545;19;154317;-15
2021/10/16 15:01:44;;;;;;;0.85;0.85;;;;;;;;;;7332239;19;161802;-16
2021/10/16 15:04:12;;;;;;;0.85;0.85;;;;;;;;;;7330624;19;162378;-17
2021/10/16 15:06:40;;;;;;;0.85;0.85;;;;;;;;;;7335162;19;154063;-14
2021/10/16 15:09:08;;;;;;;0.90;0.90;;;;;;;;;;7334204;19;153616;-16
2021/10/16 15:11:37;;;;;;;0.80;0.80;;;;;;;;;;7332948;19;161989;-14
2021/10/16 15:14:04;;;;;;;0.80;0.80;;;;;;;;;;7330231;19;162561;-14
2021/10/16 15:16:32;;;;;;;1.75;1.10;;;;;;;;;;7333333;19;154002;-14
2021/10/16 15:19:00;;;;;;;0.80;0.80;;;;;;;;;;7332179;19;153593;-15
2021/10/16 15:21:28;;;;;;;0.90;0.90;;;;;;;;;;7332846;19;162951;-13
2021/10/16 15:23:56;;;;;;;0.85;0.85;;;;;;;;;;7332521;19;162454;-17
2021/10/16 15:26:24;;;;;;;0.70;0.70;;;;;;;;;;7332854;19;154009;-16
2021/10/16 15:28:53;;;;;;;0.90;0.80;;;;;;;;;;7332827;19;154019;-14
2021/10/16 15:31:21;;;;;;;0.80;0.80;;;;;;;;;;7332571;19;161756;-17
2021/10/16 15:33:49;;;;;;;1.02;1.02;;;;;;;;;;7331002;19;162562;-17
2021/10/16 15:36:17;;;;;;;1.05;0.93;;;;;;;;;;7332331;19;154417;-15
2021/10/16 15:38:45;;;;;;;1.55;0.85;;;;;;;;;;7336713;19;153558;-14
2021/10/16 15:41:15;;;;;;;0.95;0.73;;;;;;;;;;7330203;19;161789;-16
2021/10/16 15:43:45;;;;;;;0.70;0.70;;;;;;;;;;7332578;19;162497;-13
2021/10/16 15:46:14;;;;;;;0.80;0.80;;;;;;;;;;7332300;19;154044;-12
2021/10/16 15:48:42;;;;;;;1.52;0.90;;;;;;;;;;7331124;19;153903;-13
2021/10/16 15:51:13;;;;;;;2.35;0.98;;;;;;;;;;7331755;19;161970;-14
2021/10/16 15:53:41;;;;;;;0.70;0.70;;;;;;;;;;7331615;19;162388;-16
2021/10/16 15:56:09;;;;;;;1.05;1.05;;;;;;;;;;7333529;19;153985;-16
2021/10/16 15:58:38;;;;;;;0.75;0.75;;;;;;;;;;7336345;19;153606;-14
2021/10/16 16:01:06;;;;;;;0.80;0.80;;;;;;;;;;7335122;19;162084;-13
2021/10/16 16:03:34;;;;;;;1.02;1.02;;;;;;;;;;7335859;19;162520;-15
2021/10/16 16:06:02;;;;;;;0.90;0.90;;;;;;;;;;7335231;19;154151;-13
2021/10/16 16:08:31;;;;;;;0.70;0.70;;;;;;;;;;7336313;19;153586;-13
2021/10/16 16:10:59;;;;;;;0.80;0.80;;;;;;;;;;7335399;19;161949;-14
2021/10/16 16:13:28;;;;;;;0.70;0.70;;;;;;;;;;7334511;19;162401;-16
2021/10/16 16:15:56;;;;;;;1.27;1.00;;;;;;;;;;7335406;19;154226;-16
2021/10/16 16:18:25;;;;;;;1.00;1.00;;;;;;;;;;7334631;19;153677;-18
2021/10/16 16:20:53;;;;;;;1.10;1.10;;;;;;;;;;7335658;19;163730;-13
2021/10/16 16:23:21;;;;;;;1.02;1.02;;;;;;;;;;7331984;19;162517;-15
2021/10/16 16:25:49;;;;;;;0.90;0.90;;;;;;;;;;7332371;19;153979;-17
2021/10/16 16:28:17;;;;;;;0.80;0.80;;;;;;;;;;7332084;19;153655;-14
2021/10/16 16:30:45;;;;;;;0.82;0.82;;;;;;;;;;7331838;19;161993;-13
2021/10/16 16:33:13;;;;;;;0.80;0.80;;;;;;;;;;7331104;19;162517;-16
2021/10/16 16:35:41;;;;;;;0.98;0.98;;;;;;;;;;7332052;19;154219;-15
2021/10/16 16:38:08;;;;;;;0.85;0.85;;;;;;;;;;7331897;19;153701;-15
2021/10/16 16:40:37;;;;;;;0.70;0.70;;;;;;;;;;7331575;19;161829;-12
2021/10/16 16:43:05;;;;;;;0.90;0.90;;;;;;;;;;7331540;19;162430;-15
2021/10/16 16:45:39;;;;;;;0.70;0.70;;;;;;;;;;7332004;19;153975;-13
2021/10/16 16:48:07;;;;;;;0.70;0.70;;;;;;;;;;7334556;19;153487;-13
2021/10/16 16:50:35;;;;;;;0.80;0.80;;;;;;;;;;7331077;19;161831;-16
2021/10/16 16:53:03;;;;;;;1.00;1.00;;;;;;;;;;7329464;19;162335;-15
2021/10/16 16:55:31;;;;;;;0.95;0.95;;;;;;;;;;7331406;19;154106;-14
2021/10/16 16:57:59;;;;;;;1.10;1.00;;;;;;;;;;7331153;19;153514;-15
2021/10/16 17:00:27;;;;;;;0.80;0.80;;;;;;;;;;7328188;19;161983;-16
2021/10/16 17:02:55;;;;;;;0.82;0.82;;;;;;;;;;7327782;19;162464;-16
2021/10/16 17:05:23;;;;;;;0.80;0.80;;;;;;;;;;7330044;19;154036;-16
2021/10/16 17:07:51;;;;;;;0.80;0.80;;;;;;;;;;7331128;19;153535;-14
2021/10/16 17:10:19;;;;;;;0.80;0.80;;;;;;;;;;7329559;19;161958;-14
2021/10/16 17:12:50;;;;;;;0.85;0.85;;;;;;;;;;7330435;19;162384;-14
2021/10/16 17:15:18;;;;;;;0.93;0.93;;;;;;;;;;7328196;19;154017;-14
2021/10/16 17:17:46;;;;;;;0.70;0.70;;;;;;;;;;7330712;19;153616;-13
2021/10/16 17:20:15;;;;;;;0.70;0.70;;;;;;;;;;7329244;19;162014;-14
2021/10/16 17:22:43;;;;;;;0.88;0.88;;;;;;;;;;7330459;19;162447;-16
2021/10/16 17:25:11;;;;;;;0.95;0.95;;;;;;;;;;7330805;19;154108;-16
2021/10/16 17:27:42;;;;;;;0.90;0.90;;;;;;;;;;7329090;19;153672;-15
2021/10/16 17:30:10;;;;;;;0.70;0.70;;;;;;;;;;7332095;19;161969;-16
2021/10/16 17:32:38;;;;;;;0.90;0.90;;;;;;;;;;7334084;19;162389;-15
2021/10/16 17:35:09;;;;;;;0.82;0.82;;;;;;;;;;7328011;19;153943;-13
2021/10/16 17:37:40;;;;;;;1.10;1.10;;;;;;;;;;7330247;19;153550;-16
2021/10/16 17:40:08;;;;;;;1.00;1.00;;;;;;;;;;7329938;19;162055;-15
2021/10/16 17:42:37;;;;;;;0.88;0.88;;;;;;;;;;7330333;19;162365;-15
2021/10/16 17:45:05;;;;;;;1.20;1.00;;;;;;;;;;7332021;19;154140;-14
2021/10/16 17:47:35;;;;;;;0.80;0.80;;;;;;;;;;7333406;19;153725;-13
2021/10/16 17:50:05;;;;;;;0.80;0.80;;;;;;;;;;7331511;19;161894;-16
2021/10/16 17:52:35;;;;;;;0.80;0.80;;;;;;;;;;7331109;19;162634;-13
2021/10/16 17:55:04;;;;;;;0.82;0.82;;;;;;;;;;7330562;19;154036;-13
2021/10/16 17:57:32;;;;;;;0.77;0.77;;;;;;;;;;7332556;19;153505;-13
2021/10/16 18:00:01;;;;;;;0.70;0.70;;;;;;;;;;7331177;19;161835;-15
2021/10/16 18:02:38;;;;;;;0.77;0.77;;;;;;;;;;7330029;19;162387;-12
2021/10/16 18:05:15;;;;;;;0.77;0.77;;;;;;;;;;7332302;19;154160;-15
2021/10/16 18:07:43;;;;;;;0.80;0.80;;;;;;;;;;7332035;19;153903;-13
2021/10/16 18:10:11;;;;;;;0.80;0.80;;;;;;;;;;7328537;19;161827;-13
2021/10/16 18:12:39;;;;;;;0.90;0.90;;;;;;;;;;7328186;19;162678;-12
2021/10/16 18:15:08;;;;;;;0.80;0.80;;;;;;;;;;7333318;19;154059;-13
2021/10/16 18:17:36;;;;;;;0.80;0.80;;;;;;;;;;7336881;19;153497;-15
2021/10/16 18:20:04;;;;;;;0.80;0.80;;;;;;;;;;7338412;19;161822;-12
2021/10/16 18:22:32;;;;;;;0.90;0.90;;;;;;;;;;7337911;19;162386;-15
2021/10/16 18:25:00;;;;;;;0.85;0.85;;;;;;;;;;7337653;19;154131;-13
2021/10/16 18:27:28;;;;;;;0.70;0.70;;;;;;;;;;7338806;19;153552;-17
2021/10/16 18:29:57;;;;;;;0.60;0.60;;;;;;;;;;7338203;19;161873;-14
2021/10/16 18:32:24;;;;;;;0.88;0.88;;;;;;;;;;7336322;19;162391;-15
2021/10/16 18:34:52;;;;;;;0.80;0.80;;;;;;;;;;7337176;19;154041;-18
2021/10/16 18:37:21;;;;;;;0.50;0.50;;;;;;;;;;7338352;19;153539;-16
2021/10/16 18:39:48;;;;;;;0.82;0.82;;;;;;;;;;7336980;19;161805;-14
2021/10/16 18:42:16;;;;;;;0.75;0.75;;;;;;;;;;7337221;19;162412;-17
2021/10/16 18:44:44;;;;;;;0.70;0.70;;;;;;;;;;7338570;19;153982;-13
2021/10/16 18:47:12;;;;;;;0.60;0.60;;;;;;;;;;7337948;19;153512;-16
2021/10/16 18:49:40;;;;;;;0.70;0.70;;;;;;;;;;7338284;19;161821;-15
2021/10/16 18:52:08;;;;;;;0.70;0.70;;;;;;;;;;7334285;19;162374;-16
2021/10/16 18:54:36;;;;;;;0.60;0.60;;;;;;;;;;7334108;19;154008;-16
2021/10/16 18:57:04;;;;;;;1.30;0.90;;;;;;;;;;7334853;19;153590;-16
2021/10/16 18:59:33;;;;;;;0.80;0.80;;;;;;;;;;7332997;19;161858;-15
2021/10/16 19:02:01;;;;;;;0.70;0.70;;;;;;;;;;7331225;19;162620;-16
2021/10/16 19:04:32;;;;;;;0.93;0.90;;;;;;;;;;7332693;19;154187;-15
2021/10/16 19:07:00;;;;;;;0.70;0.70;;;;;;;;;;7333858;19;153537;-17
2021/10/16 19:09:28;;;;;;;0.98;0.98;;;;;;;;;;7332556;19;161860;-15
2021/10/16 19:11:57;;;;;;;1.20;1.20;;;;;;;;;;7333547;19;162526;-14
2021/10/16 19:14:25;;;;;;;0.82;0.82;;;;;;;;;;7333576;19;154023;-16
2021/10/16 19:16:53;;;;;;;0.80;0.80;;;;;;;;;;7337309;19;153574;-18
2021/10/16 19:19:23;;;;;;;0.70;0.70;;;;;;;;;;7333584;19;161830;-17
2021/10/16 19:21:51;;;;;;;0.70;0.70;;;;;;;;;;7332322;19;162443;-16
2021/10/16 19:24:20;;;;;;;0.93;0.82;;;;;;;;;;7331485;19;154064;-13
2021/10/16 19:26:48;;;;;;;0.77;0.77;;;;;;;;;;7333690;19;154176;-14
2021/10/16 19:29:18;;;;;;;0.70;0.70;;;;;;;;;;7333280;19;161910;-16
2021/10/16 19:31:46;;;;;;;0.80;0.80;;;;;;;;;;7333498;19;162798;-14
2021/10/16 19:34:14;;;;;;;1.00;1.00;;;;;;;;;;7332696;19;154093;-14
2021/10/16 19:36:42;;;;;;;0.90;0.90;;;;;;;;;;7333418;19;153520;-16
2021/10/16 19:39:10;;;;;;;0.70;0.70;;;;;;;;;;7333066;19;162318;-15
2021/10/16 19:41:42;;;;;;;1.00;1.00;;;;;;;;;;7332414;19;162937;-15
2021/10/16 19:44:13;;;;;;;0.77;0.77;;;;;;;;;;7336247;19;154162;-16
2021/10/16 19:46:41;;;;;;;1.13;1.02;;;;;;;;;;7333056;19;153553;-12
2021/10/16 19:49:09;;;;;;;0.70;0.70;;;;;;;;;;7332367;19;161948;-13
2021/10/16 19:51:37;;;;;;;1.13;1.08;;;;;;;;;;7332200;19;163104;-15
2021/10/16 19:54:05;;;;;;;1.80;0.90;;;;;;;;;;7331827;19;154009;-14
2021/10/16 19:56:33;;;;;;;0.90;0.90;;;;;;;;;;7330369;19;153483;-12
2021/10/16 19:59:01;;;;;;;1.30;0.82;;;;;;;;;;7332234;19;161763;-15
2021/10/16 20:01:29;;;;;;;0.93;0.93;;;;;;;;;;7331138;19;162316;-16
2021/10/16 20:03:57;;;;;;;1.10;1.10;;;;;;;;;;7331673;19;154094;-17
2021/10/16 20:06:25;;;;;;;0.98;0.90;;;;;;;;;;7332252;19;153812;-14
2021/10/16 20:08:53;;;;;;;1.10;1.10;;;;;;;;;;7332116;19;161913;-14
2021/10/16 20:11:21;;;;;;;1.10;1.10;;;;;;;;;;7334182;19;162622;-16
2021/10/16 20:13:50;;;;;;;1.30;1.08;;;;;;;;;;7335425;19;154166;-12
2021/10/16 20:16:18;;;;;;;1.63;0.93;;;;;;;;;;7331258;19;153511;-13
2021/10/16 20:18:46;;;;;;;1.50;1.10;;;;;;;;;;7328805;19;161921;-13
2021/10/16 20:21:14;;;;;;;1.30;1.20;;;;;;;;;;7329993;19;162444;-17
2021/10/16 20:23:44;;;;;;;1.10;1.10;;;;;;;;;;7331060;19;154049;-17
2021/10/16 20:26:14;;;;;;;1.27;1.27;;;;;;;;;;7329906;19;153621;-15
2021/10/16 20:28:42;;;;;;;1.70;1.60;;;;;;;;;;7330422;19;162162;-14
2021/10/16 20:31:10;;;;;;;1.70;1.60;;;;;;;;;;7328994;19;162467;-13
2021/10/16 20:33:38;;;;;;;1.27;1.27;;;;;;;;;;7334958;19;154092;-15
2021/10/16 20:36:06;;;;;;;1.73;1.60;;;;;;;;;;7327195;19;153636;-13
2021/10/16 20:38:34;;;;;;;1.60;1.50;;;;;;;;;;7329067;19;161835;-14
2021/10/16 20:41:02;;;;;;;2.63;1.40;;;;;;;;;;7329808;19;162583;-15
2021/10/16 20:43:30;;;;;;;1.95;1.75;;;;;;;;;;7331516;19;154104;-14
2021/10/16 20:45:58;;;;;;;1.48;1.48;;;;;;;;;;7328400;19;153449;-14
2021/10/16 20:48:25;;;;;;;1.15;1.15;;;;;;;;;;7329738;19;161874;-13
2021/10/16 20:50:53;;;;;;;1.67;1.58;;;;;;;;;;7329767;19;162619;-12
2021/10/16 20:53:21;;;;;;;1.38;1.27;;;;;;;;;;7330033;19;154203;-16
2021/10/16 20:55:49;;;;;;;1.73;1.60;;;;;;;;;;7328304;19;153583;-14
2021/10/16 20:58:18;;;;;;;1.70;1.60;;;;;;;;;;7329547;19;161762;-16
2021/10/16 21:00:46;;;;;;;1.60;1.50;;;;;;;;;;7329378;19;162540;-13
2021/10/16 21:03:14;;;;;;;1.67;1.58;;;;;;;;;;7330101;19;154137;-12
2021/10/16 21:05:42;;;;;;;1.85;1.50;;;;;;;;;;7329952;19;153631;-14
2021/10/16 21:08:10;;;;;;;1.73;1.63;;;;;;;;;;7328393;19;162089;-17
2021/10/16 21:10:37;;;;;;;1.48;1.38;;;;;;;;;;7329184;19;162404;-16
2021/10/16 21:13:05;;;;;;;1.33;1.30;;;;;;;;;;7328766;19;153938;-14
2021/10/16 21:15:33;;;;;;;1.40;1.30;;;;;;;;;;7328191;19;153661;-15
2021/10/16 21:18:01;;;;;;;1.45;1.35;;;;;;;;;;7329127;19;161798;-15
2021/10/16 21:20:29;;;;;;;1.40;1.38;;;;;;;;;;7329036;19;162323;-17
2021/10/16 21:22:57;;;;;;;1.48;1.48;;;;;;;;;;7329060;19;154263;-15
2021/10/16 21:25:25;;;;;;;1.23;1.23;;;;;;;;;;7329439;19;153571;-15
2021/10/16 21:27:53;;;;;;;1.75;1.40;;;;;;;;;;7328983;19;161865;-16
2021/10/16 21:30:27;;;;;;;1.42;1.20;;;;;;;;;;7327394;19;162952;-13
2021/10/16 21:32:55;;;;;;;1.48;1.38;;;;;;;;;;7327915;19;154063;-14
2021/10/16 21:35:33;;;;;;;1.25;1.25;;;;;;;;;;7328361;19;153555;-14
2021/10/16 21:38:03;;;;;;;1.48;1.38;;;;;;;;;;7327359;19;161603;-13
2021/10/16 21:40:33;;;;;;;1.38;1.30;;;;;;;;;;7326865;19;162395;-13
2021/10/16 21:43:01;;;;;;;1.50;1.40;;;;;;;;;;7328828;19;153986;-13
2021/10/16 21:45:29;;;;;;;1.05;1.05;;;;;;;;;;7328539;19;153730;-13
2021/10/16 21:47:57;;;;;;;1.25;1.20;;;;;;;;;;7327703;19;161785;-16
2021/10/16 21:50:25;;;;;;;1.20;1.20;;;;;;;;;;7327981;19;162409;-13
2021/10/16 21:52:56;;;;;;;1.33;1.23;;;;;;;;;;7332606;19;154133;-14
2021/10/16 21:55:23;;;;;;;1.15;1.15;;;;;;;;;;7326499;19;153643;-16
2021/10/16 21:57:51;;;;;;;1.52;1.42;;;;;;;;;;7328059;19;161999;-17
2021/10/16 22:00:40;;;;;;;1.10;1.10;;;;;;;;;;7327748;19;162546;-13
2021/10/16 22:03:13;;;;;;;1.35;1.23;;;;;;;;;;7324919;19;156997;-16
2021/10/16 22:05:42;;;;;;;1.38;1.30;;;;;;;;;;7327312;19;153713;-14
2021/10/16 22:08:11;;;;;;;1.08;1.08;;;;;;;;;;7327655;19;162225;-17
2021/10/16 22:10:43;;;;;;;1.30;1.20;;;;;;;;;;7327596;19;162401;-16
2021/10/16 22:13:12;;;;;;;1.27;1.27;;;;;;;;;;7328040;19;154222;-16
2021/10/16 22:15:40;;;;;;;1.27;1.27;;;;;;;;;;7327134;19;153500;-16
2021/10/16 22:18:08;;;;;;;1.40;1.30;;;;;;;;;;7327351;19;161834;-15
2021/10/16 22:20:38;;;;;;;2.22;1.27;;;;;;;;;;7327285;19;162552;-16
2021/10/16 22:23:07;;;;;;;0.93;0.93;;;;;;;;;;7326257;19;153997;-14
2021/10/16 22:25:35;;;;;;;1.10;1.10;;;;;;;;;;7326252;19;153742;-14
2021/10/16 22:28:04;;;;;;;1.13;1.13;;;;;;;;;;7326919;19;161949;-15
2021/10/16 22:30:32;;;;;;;1.17;1.13;;;;;;;;;;7327090;19;162530;-14
2021/10/16 22:33:00;;;;;;;1.42;1.33;;;;;;;;;;7327536;19;154014;-14
2021/10/16 22:35:29;;;;;;;1.20;1.20;;;;;;;;;;7326917;19;153660;-16
2021/10/16 22:37:57;;;;;;;1.13;1.13;;;;;;;;;;7326996;19;161875;-14
2021/10/16 22:40:25;;;;;;;1.00;1.00;;;;;;;;;;7325270;19;162416;-13
2021/10/16 22:42:53;;;;;;;1.00;1.00;;;;;;;;;;7327252;19;154056;-13
2021/10/16 22:45:24;;;;;;;1.20;1.20;;;;;;;;;;7326584;19;153572;-14
2021/10/16 22:47:55;;;;;;;2.50;1.15;;;;;;;;;;7329640;19;161841;-13
2021/10/16 22:50:23;;;;;;;1.55;1.15;;;;;;;;;;7328967;19;162504;-16
2021/10/16 22:52:55;;;;;;;1.33;1.10;;;;;;;;;;7326292;19;153978;-14
2021/10/16 22:55:25;;;;;;;2.33;1.40;;;;;;;;;;7328642;19;153682;-16
2021/10/16 22:57:53;;;;;;;1.30;1.20;;;;;;;;;;7328360;19;161828;-17
2021/10/16 23:00:22;;;;;;;0.90;0.90;;;;;;;;;;7331915;19;162384;-14
2021/10/16 23:02:52;;;;;;;1.10;1.10;;;;;;;;;;7331360;19;153975;-15
2021/10/16 23:05:21;;;;;;;1.23;1.10;;;;;;;;;;7334757;19;153531;-13
2021/10/16 23:07:50;;;;;;;1.20;1.20;;;;;;;;;;7332806;19;161989;-12
2021/10/16 23:10:19;;;;;;;1.10;1.10;;;;;;;;;;7336227;19;162395;-14
2021/10/16 23:12:47;;;;;;;1.17;1.17;;;;;;;;;;7336776;19;154101;-14
2021/10/16 23:15:16;;;;;;;1.00;1.00;;;;;;;;;;7332952;19;153660;-16
2021/10/16 23:17:44;;;;;;;1.35;1.25;;;;;;;;;;7329962;19;161755;-17
2021/10/16 23:20:16;;;;;;;1.10;1.10;;;;;;;;;;7335519;19;162697;-16
2021/10/16 23:23:00;;;;;;;1.10;1.10;;;;;;;;;;7333237;19;154013;-14
2021/10/16 23:25:30;;;;;;;1.15;1.15;;;;;;;;;;7332600;19;154265;-17
2021/10/16 23:27:58;;;;;;;1.08;1.00;;;;;;;;;;7332229;19;161796;-17
2021/10/16 23:30:25;;;;;;;1.10;1.10;;;;;;;;;;7331800;19;162371;-14
2021/10/16 23:32:53;;;;;;;1.10;1.10;;;;;;;;;;7334982;19;153985;-18
2021/10/16 23:35:21;;;;;;;1.10;1.00;;;;;;;;;;7336622;19;153648;-16
2021/10/16 23:37:49;;;;;;;0.93;0.93;;;;;;;;;;7329775;19;161886;-16
2021/10/16 23:40:18;;;;;;;0.80;0.80;;;;;;;;;;7332085;19;162355;-18
2021/10/16 23:42:49;;;;;;;1.00;1.00;;;;;;;;;;7332177;19;154164;-17
2021/10/16 23:45:18;;;;;;;1.13;0.90;;;;;;;;;;7332040;19;153857;-15
2021/10/16 23:47:47;;;;;;;0.90;0.90;;;;;;;;;;7333542;19;162012;-18
2021/10/16 23:50:18;;;;;;;1.00;1.00;;;;;;;;;;7331910;19;162327;-16
2021/10/16 23:52:46;;;;;;;0.90;0.90;;;;;;;;;;7332198;19;154030;-15
2021/10/16 23:55:15;;;;;;;1.10;1.10;;;;;;;;;;7332075;19;153670;-14
2021/10/16 23:57:43;;;;;;;2.00;1.20;;;;;;;;;;7329433;19;162452;-16
